Maia — WDJ4195 — position and weather

sailwx.info

Track history (hours):
 
Tides and Currents Weather Stations Pressure Air Temp Water Temp Dewpoint Dewpoint Depression Visibility Wind Speed Wind Dir Waves Ship Positions

Maia

Owner: Palop, Rafael, DORAL, FL. More information available from US FCC via Universal Licensing System and Coast Guard Vessel Documentation Center.

Last reported at 2017-Oct-08 22:47 UTC. Time now 2017-Nov-22 12:41 UTC.
Position N 25°47' W 080°14'.
Warning: this ship's position is 44 days out of date.

Length 17 m.

Type: Sailing vessel. MMSI: 338853000.

Date/timePositionNaut miles runAvg speedWind from/ knotsBaromVisibWave heightAir tempDewpointWater temp
2017-Oct-08 22:47N 25°47' W 080°14'0 0.0
2017-Oct-08 22:29N 25°47' W 080°14'0 0.0
2017-Oct-08 21:59N 25°47' W 080°14'1 1.4
2017-Oct-08 21:30N 25°47' W 080°14'2 4.2
2017-Oct-08 21:00N 25°46' W 080°12'3 5.1
2017-Oct-08 20:30N 25°44' W 080°11'3 6.1
2017-Oct-08 20:00N 25°41' W 080°12'3 6.8
2017-Oct-08 19:30N 25°37' W 080°13'3 5.5
2017-Oct-08 18:55N 25°34' W 080°14'2 5.9
2017-Oct-08 18:30N 25°32' W 080°14'3 4.6
2017-Oct-08 17:54N 25°29' W 080°15'1 2.5
2017-Oct-08 17:30N 25°29' W 080°14'2 2.9
2017-Oct-08 16:57N 25°29' W 080°12'0 0.6
2017-Oct-08 16:30N 25°29' W 080°12'0 0.0
2017-Oct-08 15:57N 25°29' W 080°12'0 0.0
2017-Oct-08 15:27N 25°29' W 080°12'0 0.0
2017-Oct-08 14:54N 25°29' W 080°12'0 0.0
2017-Oct-08 14:27N 25°29' W 080°12'0 0.0
2017-Oct-08 13:57N 25°29' W 080°12'0 0.0
2017-Oct-08 13:27N 25°29' W 080°12'0 0.0
2017-Oct-08 12:54N 25°29' W 080°12'0 0.0
2017-Oct-08 12:27N 25°29' W 080°12'0 0.0
2017-Oct-08 11:57N 25°29' W 080°12'0 0.0
2017-Oct-08 11:30N 25°29' W 080°12'0 0.0
2017-Oct-08 11:00N 25°29' W 080°12'0 0.0
2017-Oct-08 10:24N 25°29' W 080°12'0 0.0
2017-Oct-08 09:57N 25°29' W 080°12'0 0.0
2017-Oct-08 09:30N 25°29' W 080°12'0 0.0
2017-Oct-08 08:57N 25°29' W 080°12'0 0.0
2017-Oct-08 08:30N 25°29' W 080°12'0 0.0
2017-Oct-08 08:00N 25°29' W 080°12'0 0.0
2017-Oct-08 07:24N 25°29' W 080°12'0 0.0
2017-Oct-08 06:51N 25°29' W 080°12'0 0.0
2017-Oct-08 06:27N 25°29' W 080°12'0 0.0
2017-Oct-08 06:00N 25°29' W 080°12'0 0.0
2017-Oct-08 05:30N 25°29' W 080°12'0 0.0
2017-Oct-08 04:57N 25°29' W 080°12'0 0.0
2017-Oct-08 04:21N 25°29' W 080°12'0 0.0
2017-Oct-08 04:00N 25°29' W 080°12'0 0.0
2017-Oct-08 03:30N 25°29' W 080°12'0 0.0
2017-Oct-08 02:55N 25°29' W 080°12'0 0.0
2017-Oct-08 02:25N 25°29' W 080°12'0 0.0
2017-Oct-08 01:49N 25°29' W 080°12'0 0.0
2017-Oct-08 01:19N 25°29' W 080°12'0 0.0
2017-Oct-08 00:55N 25°29' W 080°12'3 5.4
2017-Oct-08 00:27N 25°30' W 080°14'3 6.5
2017-Oct-07 23:59N 25°33' W 080°14'4 7.6
2017-Oct-07 23:30N 25°37' W 080°14'3 5.3
2017-Oct-07 23:00N 25°39' W 080°13'2 4.0
2017-Oct-07 22:30N 25°41' W 080°12'2 3.7
2017-Oct-07 22:00N 25°43' W 080°11'3 5.5
2017-Oct-07 21:30N 25°46' W 080°11'2 3.2
2017-Oct-07 21:00N 25°47' W 080°12'2 3.4
2017-Oct-07 20:29N 25°47' W 080°14'  
Track history (hours):
 
Tides and Currents Weather Stations Pressure Air Temp Water Temp Dewpoint Dewpoint Depression Visibility Wind Speed Wind Dir Waves Ship Positions

Maia

Owner: Palop, Rafael, DORAL, FL. More information available from US FCC via Universal Licensing System and Coast Guard Vessel Documentation Center.

Last reported at 2017-Oct-08 22:47 UTC. Time now 2017-Nov-22 12:41 UTC.
Position N 25°47' W 080°14'.
Warning: this ship's position is 44 days out of date.

Length 17 m.

Type: Sailing vessel. MMSI: 338853000.

Date/timePositionNaut miles runAvg speedWind from/ knotsBaromVisibWave heightAir tempDewpointWater temp
2017-Oct-08 22:47N 25°47' W 080°14'0 0.0
2017-Oct-08 22:29N 25°47' W 080°14'0 0.0
2017-Oct-08 21:59N 25°47' W 080°14'1 1.4
2017-Oct-08 21:30N 25°47' W 080°14'2 4.2
2017-Oct-08 21:00N 25°46' W 080°12'3 5.1
2017-Oct-08 20:30N 25°44' W 080°11'3 6.1
2017-Oct-08 20:00N 25°41' W 080°12'3 6.8
2017-Oct-08 19:30N 25°37' W 080°13'3 5.5
2017-Oct-08 18:55N 25°34' W 080°14'2 5.9
2017-Oct-08 18:30N 25°32' W 080°14'3 4.6
2017-Oct-08 17:54N 25°29' W 080°15'1 2.5
2017-Oct-08 17:30N 25°29' W 080°14'2 2.9
2017-Oct-08 16:57N 25°29' W 080°12'0 0.6
2017-Oct-08 16:30N 25°29' W 080°12'0 0.0
2017-Oct-08 15:57N 25°29' W 080°12'0 0.0
2017-Oct-08 15:27N 25°29' W 080°12'0 0.0
2017-Oct-08 14:54N 25°29' W 080°12'0 0.0
2017-Oct-08 14:27N 25°29' W 080°12'0 0.0
2017-Oct-08 13:57N 25°29' W 080°12'0 0.0
2017-Oct-08 13:27N 25°29' W 080°12'0 0.0
2017-Oct-08 12:54N 25°29' W 080°12'0 0.0
2017-Oct-08 12:27N 25°29' W 080°12'0 0.0
2017-Oct-08 11:57N 25°29' W 080°12'0 0.0
2017-Oct-08 11:30N 25°29' W 080°12'0 0.0
2017-Oct-08 11:00N 25°29' W 080°12'0 0.0
2017-Oct-08 10:24N 25°29' W 080°12'0 0.0
2017-Oct-08 09:57N 25°29' W 080°12'0 0.0
2017-Oct-08 09:30N 25°29' W 080°12'0 0.0
2017-Oct-08 08:57N 25°29' W 080°12'0 0.0
2017-Oct-08 08:30N 25°29' W 080°12'0 0.0
2017-Oct-08 08:00N 25°29' W 080°12'0 0.0
2017-Oct-08 07:24N 25°29' W 080°12'0 0.0
2017-Oct-08 06:51N 25°29' W 080°12'0 0.0
2017-Oct-08 06:27N 25°29' W 080°12'0 0.0
2017-Oct-08 06:00N 25°29' W 080°12'0 0.0
2017-Oct-08 05:30N 25°29' W 080°12'0 0.0
2017-Oct-08 04:57N 25°29' W 080°12'0 0.0
2017-Oct-08 04:21N 25°29' W 080°12'0 0.0
2017-Oct-08 04:00N 25°29' W 080°12'0 0.0
2017-Oct-08 03:30N 25°29' W 080°12'0 0.0
2017-Oct-08 02:55N 25°29' W 080°12'0 0.0
2017-Oct-08 02:25N 25°29' W 080°12'0 0.0
2017-Oct-08 01:49N 25°29' W 080°12'0 0.0
2017-Oct-08 01:19N 25°29' W 080°12'0 0.0
2017-Oct-08 00:55N 25°29' W 080°12'3 5.4
2017-Oct-08 00:27N 25°30' W 080°14'3 6.5
2017-Oct-07 23:59N 25°33' W 080°14'4 7.6
2017-Oct-07 23:30N 25°37' W 080°14'3 5.3
2017-Oct-07 23:00N 25°39' W 080°13'2 4.0
2017-Oct-07 22:30N 25°41' W 080°12'2 3.7
2017-Oct-07 22:00N 25°43' W 080°11'3 5.5
2017-Oct-07 21:30N 25°46' W 080°11'2 3.2
2017-Oct-07 21:00N 25°47' W 080°12'2 3.4
2017-Oct-07 20:29N 25°47' W 080°14'  

Dump ship's entire track history